Time;durP1;ratioP1;P1;durP2;ratioP2;P2;SDS_P1;SDS_P2;PMS_P1;PMS_P2;Temp;Humidity;BMP_temperature;BMP_pressure;BME280_temperature;BME280_humidity;BME280_pressure;Samples;Min_cycle;Max_cycle;Signal;HPM_P1;HPM_P2
2022/10/11 00:02:09;;;;;;;5.33;3.65;;;15.90;99.90;;;;;;934870;151;27648;-78
2022/10/11 00:04:36;;;;;;;4.53;3.65;;;15.80;99.90;;;;;;917624;154;28014;-78
2022/10/11 00:07:03;;;;;;;9.43;4.13;;;15.80;99.90;;;;;;934038;151;27273;-78
2022/10/11 00:10:15;;;;;;;4.53;3.77;;;15.70;99.90;;;;;;939324;151;27382;-78
2022/10/11 00:12:42;;;;;;;6.72;4.10;;;15.70;99.90;;;;;;935600;148;27428;-79
2022/10/11 00:15:09;;;;;;;4.83;3.67;;;15.60;99.90;;;;;;935199;148;27889;-79
2022/10/11 00:17:35;;;;;;;7.03;3.70;;;15.50;99.90;;;;;;935428;148;27458;-79
2022/10/11 00:20:02;;;;;;;5.43;3.67;;;15.40;99.90;;;;;;936261;148;27455;-79
2022/10/11 00:22:29;;;;;;;5.80;3.53;;;15.30;99.90;;;;;;936664;151;27429;-79
2022/10/11 00:24:57;;;;;;;5.87;4.40;;;15.30;99.90;;;;;;935143;148;27302;-79
2022/10/11 00:27:22;;;;;;;6.20;4.33;;;15.20;99.90;;;;;;935452;149;27296;-79
2022/10/11 00:29:48;;;;;;;5.47;4.15;;;15.10;99.90;;;;;;936492;151;27482;-79
2022/10/11 00:32:15;;;;;;;5.17;3.93;;;15.10;99.90;;;;;;936120;148;27467;-79
2022/10/11 00:34:41;;;;;;;4.43;4.03;;;15.00;99.90;;;;;;936292;149;27276;-79
2022/10/11 00:37:08;;;;;;;8.60;4.57;;;14.90;99.90;;;;;;921424;154;27444;-79
2022/10/11 00:39:35;;;;;;;4.90;3.97;;;14.90;99.90;;;;;;920409;154;27812;-79
2022/10/11 00:42:01;;;;;;;7.30;4.37;;;14.90;99.90;;;;;;917493;151;27372;-79
2022/10/11 00:44:28;;;;;;;8.67;4.67;;;14.80;99.90;;;;;;935199;151;27503;-79
2022/10/11 00:46:54;;;;;;;7.43;3.90;;;14.70;99.90;;;;;;936834;149;28245;-79
2022/10/11 00:49:21;;;;;;;5.23;4.47;;;14.70;99.90;;;;;;936806;151;27342;-79
2022/10/11 00:51:56;;;;;;;5.17;3.93;;;14.60;99.90;;;;;;933896;149;27405;-79
2022/10/11 00:54:24;;;;;;;7.87;4.00;;;14.60;99.90;;;;;;933701;151;27355;-79
2022/10/11 00:56:50;;;;;;;6.77;4.30;;;14.50;99.90;;;;;;936951;151;27382;-79
2022/10/11 00:59:16;;;;;;;6.83;4.67;;;14.50;99.90;;;;;;932955;151;28456;-79
2022/10/11 01:01:43;;;;;;;5.97;4.00;;;14.40;99.90;;;;;;935804;151;27272;-79
2022/10/11 01:04:09;;;;;;;6.47;5.00;;;14.40;99.90;;;;;;935125;151;27444;-79
2022/10/11 01:06:36;;;;;;;6.97;4.27;;;14.40;99.90;;;;;;935711;149;27402;-79
2022/10/11 01:09:02;;;;;;;6.10;4.10;;;14.40;99.90;;;;;;934267;151;27466;-79
2022/10/11 01:11:29;;;;;;;6.43;4.10;;;14.40;99.90;;;;;;935445;149;27451;-79
2022/10/11 01:14:14;;;;;;;6.27;3.67;;;14.40;99.90;;;;;;935073;151;27416;-79
2022/10/11 01:16:43;;;;;;;6.80;4.00;;;14.40;99.90;;;;;;935656;148;27321;-79
2022/10/11 01:19:15;;;;;;;4.87;3.60;;;14.30;99.90;;;;;;933917;148;27341;-79
2022/10/11 01:21:51;;;;;;;5.13;3.30;;;14.30;99.90;;;;;;922898;151;27404;-79
2022/10/11 01:24:32;;;;;;;7.10;3.87;;;14.30;99.90;;;;;;931788;152;27340;-79
2022/10/11 01:27:24;;;;;;;4.33;3.50;;;14.30;99.90;;;;;;935107;148;27294;-79
2022/10/11 01:30:08;;;;;;;3.13;2.83;;;14.20;99.90;;;;;;921773;153;27854;-79
2022/10/11 01:32:37;;;;;;;3.73;3.37;;;14.20;99.90;;;;;;919883;154;27401;-78
2022/10/11 01:35:34;;;;;;;3.97;3.07;;;14.20;99.90;;;;;;935198;148;27452;-78
2022/10/11 01:38:01;;;;;;;3.47;2.90;;;14.10;99.90;;;;;;935022;151;27364;-79
2022/10/11 01:40:31;;;;;;;2.90;2.67;;;14.10;99.90;;;;;;935119;148;27307;-78
2022/10/11 01:42:57;;;;;;;5.10;2.53;;;14.00;99.90;;;;;;933648;148;27496;-78
2022/10/11 01:45:24;;;;;;;3.10;2.80;;;14.00;99.90;;;;;;936130;151;27297;-78
2022/10/11 01:48:02;;;;;;;3.03;2.07;;;14.00;99.90;;;;;;934593;151;27563;-78
2022/10/11 01:50:37;;;;;;;2.30;2.10;;;13.90;99.90;;;;;;933202;151;27398;-79
2022/10/11 01:53:09;;;;;;;4.33;2.40;;;13.90;99.90;;;;;;937348;151;27917;-79
2022/10/11 01:55:39;;;;;;;4.97;3.60;;;13.90;99.90;;;;;;915220;151;27275;-78
2022/10/11 01:58:11;;;;;;;4.43;2.17;;;13.80;99.90;;;;;;935350;151;27398;-78
2022/10/11 02:00:43;;;;;;;4.07;2.30;;;13.80;99.90;;;;;;933536;151;27351;-78
2022/10/11 02:03:16;;;;;;;2.50;2.23;;;13.80;99.90;;;;;;932321;151;27461;-78
2022/10/11 02:05:51;;;;;;;3.27;2.23;;;13.70;99.90;;;;;;936409;148;27366;-78
2022/10/11 02:08:36;;;;;;;2.40;2.20;;;13.70;99.90;;;;;;935100;151;27359;-79
2022/10/11 02:11:06;;;;;;;3.17;2.10;;;13.70;99.70;;;;;;935621;148;27369;-79
2022/10/11 02:13:35;;;;;;;4.93;2.47;;;13.60;99.70;;;;;;935656;148;27338;-78
2022/10/11 02:16:02;;;;;;;2.80;2.10;;;13.50;99.70;;;;;;935004;151;27420;-78
2022/10/11 02:18:28;;;;;;;2.77;2.10;;;13.50;99.90;;;;;;933921;151;27430;-78
2022/10/11 02:20:55;;;;;;;3.57;2.13;;;13.50;99.90;;;;;;934116;148;27390;-78
2022/10/11 02:23:28;;;;;;;2.17;1.97;;;13.40;99.90;;;;;;933842;149;27353;-78
2022/10/11 02:25:54;;;;;;;2.33;2.13;;;13.40;99.90;;;;;;917801;154;27737;-78
2022/10/11 02:28:21;;;;;;;5.33;2.63;;;13.40;99.90;;;;;;919307;154;27309;-78
2022/10/11 02:30:47;;;;;;;4.50;2.70;;;13.30;99.90;;;;;;933596;151;27318;-78
2022/10/11 02:33:14;;;;;;;3.97;2.53;;;13.20;99.90;;;;;;935144;151;27970;-78
2022/10/11 02:35:43;;;;;;;4.33;2.37;;;13.20;99.90;;;;;;935377;151;27448;-78
2022/10/11 02:38:12;;;;;;;5.47;1.83;;;13.20;99.90;;;;;;934741;151;27432;-78
2022/10/11 02:40:39;;;;;;;4.10;2.13;;;13.10;99.90;;;;;;920219;153;27335;-78
2022/10/11 02:43:16;;;;;;;2.97;1.67;;;13.10;99.90;;;;;;919039;153;27342;-78
2022/10/11 02:45:41;;;;;;;3.20;1.70;;;13.00;99.90;;;;;;916605;154;27557;-79
2022/10/11 02:48:08;;;;;;;4.03;2.40;;;13.00;99.90;;;;;;919336;154;27388;-78
2022/10/11 02:50:34;;;;;;;3.80;2.53;;;12.90;99.90;;;;;;936830;148;27434;-78
2022/10/11 02:53:03;;;;;;;4.27;2.10;;;12.90;99.90;;;;;;934889;148;27366;-78
2022/10/11 02:55:27;;;;;;;2.40;2.13;;;12.80;99.90;;;;;;935364;148;27311;-78
2022/10/11 02:57:54;;;;;;;3.17;2.13;;;12.80;99.90;;;;;;935705;151;27373;-78
2022/10/11 03:00:21;;;;;;;3.30;2.47;;;12.70;99.90;;;;;;936692;148;28237;-78
2022/10/11 03:02:47;;;;;;;3.47;2.30;;;12.70;99.90;;;;;;933397;151;27347;-78
2022/10/11 03:05:14;;;;;;;6.83;2.43;;;12.60;99.90;;;;;;936248;149;27438;-78
2022/10/11 03:07:40;;;;;;;3.87;2.60;;;12.60;99.90;;;;;;935506;149;27297;-78
2022/10/11 03:10:07;;;;;;;4.67;2.20;;;12.50;99.90;;;;;;936090;151;27463;-78
2022/10/11 03:12:33;;;;;;;7.17;2.93;;;12.50;99.90;;;;;;938727;148;27367;-78
2022/10/11 03:15:00;;;;;;;5.10;2.57;;;12.50;99.90;;;;;;937553;151;27365;-78
2022/10/11 03:17:27;;;;;;;5.23;1.97;;;12.40;99.90;;;;;;935783;149;27278;-78
2022/10/11 03:19:53;;;;;;;7.33;2.40;;;12.40;99.90;;;;;;937005;151;27327;-78
2022/10/11 03:22:20;;;;;;;5.87;2.23;;;12.40;99.90;;;;;;935533;148;27350;-78
2022/10/11 03:24:46;;;;;;;5.33;2.30;;;12.40;99.90;;;;;;936650;148;27362;-78
2022/10/11 03:27:13;;;;;;;2.43;1.67;;;12.40;99.90;;;;;;936074;151;27370;-78
2022/10/11 03:29:40;;;;;;;6.87;2.07;;;12.40;99.90;;;;;;935108;149;27317;-78
2022/10/11 03:32:06;;;;;;;7.83;2.17;;;12.40;99.90;;;;;;936001;148;27342;-78
2022/10/11 03:34:33;;;;;;;7.33;2.63;;;12.40;99.90;;;;;;934402;148;27401;-78
2022/10/11 03:36:59;;;;;;;4.10;1.70;;;12.40;99.90;;;;;;936069;149;27403;-78
2022/10/11 03:39:26;;;;;;;5.77;2.40;;;12.40;99.90;;;;;;933902;148;27369;-78
2022/10/11 03:41:53;;;;;;;4.37;1.90;;;12.40;99.90;;;;;;936440;151;27281;-78
2022/10/11 03:44:19;;;;;;;4.63;1.83;;;12.40;99.90;;;;;;936109;148;27324;-78
2022/10/11 03:46:46;;;;;;;4.13;1.90;;;12.40;99.90;;;;;;922290;154;27440;-78
2022/10/11 03:49:12;;;;;;;4.57;2.13;;;12.40;99.70;;;;;;918874;152;27395;-78
2022/10/11 03:51:39;;;;;;;4.63;1.63;;;12.40;99.40;;;;;;936262;151;27846;-78
2022/10/11 03:54:05;;;;;;;5.40;1.90;;;12.30;99.30;;;;;;936066;151;27422;-78
2022/10/11 03:56:32;;;;;;;4.87;2.17;;;12.30;99.10;;;;;;934043;148;27347;-78
2022/10/11 03:58:59;;;;;;;6.60;2.30;;;12.30;99.30;;;;;;935113;151;27423;-77
2022/10/11 04:01:25;;;;;;;7.93;2.67;;;12.20;99.00;;;;;;934453;151;27366;-78
2022/10/11 04:03:52;;;;;;;5.63;1.87;;;12.20;98.90;;;;;;936699;151;27441;-78
2022/10/11 04:06:18;;;;;;;4.57;1.50;;;12.10;98.80;;;;;;919471;154;27363;-78
2022/10/11 04:08:45;;;;;;;5.97;2.47;;;12.10;98.80;;;;;;918218;154;27438;-78
2022/10/11 04:11:12;;;;;;;7.67;2.10;;;12.00;98.80;;;;;;924944;154;27391;-78
2022/10/11 04:13:38;;;;;;;7.20;2.47;;;12.00;98.90;;;;;;936251;151;27398;-78
2022/10/11 04:16:05;;;;;;;11.63;2.30;;;12.00;99.10;;;;;;937087;148;27357;-80
2022/10/11 04:18:31;;;;;;;4.60;2.07;;;11.90;99.10;;;;;;935646;150;27351;-80
2022/10/11 04:20:58;;;;;;;6.37;2.30;;;11.90;99.10;;;;;;935158;151;27282;-80
2022/10/11 04:23:25;;;;;;;5.57;2.10;;;11.90;99.10;;;;;;934524;148;27303;-80
2022/10/11 04:25:51;;;;;;;4.53;2.10;;;11.90;99.00;;;;;;918723;154;27354;-80
2022/10/11 04:28:18;;;;;;;9.07;2.50;;;11.90;99.30;;;;;;935541;149;27346;-80
2022/10/11 04:30:44;;;;;;;4.10;1.80;;;11.80;99.10;;;;;;935081;151;27363;-80
2022/10/11 04:33:11;;;;;;;6.03;2.10;;;11.80;99.00;;;;;;935754;148;27364;-80
2022/10/11 04:35:37;;;;;;;6.27;2.57;;;11.80;98.80;;;;;;919525;154;27459;-80
2022/10/11 04:38:04;;;;;;;5.63;2.10;;;11.80;98.70;;;;;;921544;151;27429;-80
2022/10/11 04:40:31;;;;;;;9.40;2.30;;;11.70;98.60;;;;;;918104;154;27401;-80
2022/10/11 04:42:57;;;;;;;4.83;1.93;;;11.70;98.50;;;;;;917910;151;27467;-80
2022/10/11 04:45:24;;;;;;;4.90;2.10;;;11.70;98.60;;;;;;919791;152;28979;-80
2022/10/11 04:47:50;;;;;;;5.67;2.03;;;11.60;98.60;;;;;;918233;151;27369;-81
2022/10/11 04:50:17;;;;;;;6.40;2.40;;;11.60;98.50;;;;;;919534;153;28016;-80
2022/10/11 04:52:44;;;;;;;5.00;1.90;;;11.50;98.60;;;;;;919523;152;27395;-80
2022/10/11 04:55:10;;;;;;;5.83;2.17;;;11.50;98.60;;;;;;919262;154;27448;-80
2022/10/11 04:57:37;;;;;;;6.37;2.00;;;11.40;98.60;;;;;;918309;152;27424;-80
2022/10/11 05:00:03;;;;;;;8.23;2.30;;;11.40;98.70;;;;;;934781;148;27341;-80
2022/10/11 05:02:30;;;;;;;6.23;1.80;;;11.30;98.70;;;;;;936728;151;27424;-80
2022/10/11 05:04:57;;;;;;;8.73;2.53;;;11.30;98.80;;;;;;935282;148;27290;-80
2022/10/11 05:07:23;;;;;;;4.83;1.93;;;11.20;98.80;;;;;;934269;148;27346;-80
2022/10/11 05:09:50;;;;;;;5.10;1.60;;;11.20;99.00;;;;;;933265;151;27371;-80
2022/10/11 05:12:16;;;;;;;5.57;2.00;;;11.10;98.90;;;;;;933819;148;28902;-80
2022/10/11 05:14:43;;;;;;;4.23;2.07;;;11.10;99.00;;;;;;934373;148;27270;-80
2022/10/11 05:17:09;;;;;;;7.90;2.03;;;11.10;99.10;;;;;;936754;151;27341;-80
2022/10/11 05:19:36;;;;;;;8.27;2.37;;;11.00;99.10;;;;;;931507;152;27756;-80
2022/10/11 05:22:03;;;;;;;7.70;2.00;;;11.00;99.60;;;;;;930681;151;27370;-80
2022/10/11 05:24:29;;;;;;;8.87;2.00;;;11.00;99.30;;;;;;931332;151;27489;-80
2022/10/11 05:26:56;;;;;;;5.83;2.13;;;10.90;99.30;;;;;;915839;154;27340;-80
2022/10/11 05:29:22;;;;;;;5.23;2.13;;;10.90;99.40;;;;;;935979;148;27483;-80
2022/10/11 05:31:49;;;;;;;4.00;2.00;;;10.90;99.50;;;;;;935603;151;27366;-80
2022/10/11 05:34:16;;;;;;;7.97;1.97;;;10.80;99.50;;;;;;935319;148;27394;-80
2022/10/11 05:36:42;;;;;;;8.20;2.23;;;10.80;99.60;;;;;;936922;151;27377;-80
2022/10/11 05:39:09;;;;;;;11.77;2.90;;;10.80;99.70;;;;;;936387;151;27307;-80
2022/10/11 05:41:35;;;;;;;6.50;2.20;;;10.80;99.60;;;;;;933139;152;27320;-80
2022/10/11 05:44:02;;;;;;;5.07;1.97;;;10.70;99.70;;;;;;918320;151;27342;-80
2022/10/11 05:46:29;;;;;;;12.33;2.87;;;10.70;99.70;;;;;;939114;151;27406;-80
2022/10/11 05:48:55;;;;;;;7.10;2.10;;;10.70;99.80;;;;;;936916;151;27378;-80
2022/10/11 05:51:22;;;;;;;6.33;2.07;;;10.70;99.90;;;;;;928250;152;27376;-78
2022/10/11 05:53:48;;;;;;;8.00;2.70;;;10.70;99.90;;;;;;927644;152;27411;-78
2022/10/11 05:56:18;;;;;;;11.23;4.07;;;10.70;99.90;;;;;;928946;150;28106;-78
2022/10/11 05:58:44;;;;;;;10.53;3.70;;;10.60;99.90;;;;;;928602;152;27528;-76
2022/10/11 06:01:19;;;;;;;7.50;4.07;;;10.60;99.90;;;;;;930391;152;27372;-77
2022/10/11 06:03:46;;;;;;;10.07;5.07;;;10.60;99.90;;;;;;927976;152;27442;-77
2022/10/11 06:06:13;;;;;;;12.67;4.00;;;10.60;99.90;;;;;;927539;152;27382;-77
2022/10/11 06:08:39;;;;;;;7.87;3.77;;;10.60;99.90;;;;;;928752;153;27988;-76
2022/10/11 06:11:09;;;;;;;8.73;3.40;;;10.60;99.90;;;;;;927814;153;27471;-76
2022/10/11 06:13:35;;;;;;;8.53;2.93;;;10.70;99.90;;;;;;929610;152;27479;-77
2022/10/11 06:16:05;;;;;;;8.03;3.00;;;10.90;99.90;;;;;;927819;152;27331;-76
2022/10/11 06:18:31;;;;;;;9.87;2.57;;;11.10;99.90;;;;;;927897;150;27317;-76
2022/10/11 06:20:58;;;;;;;6.23;2.57;;;11.30;99.90;;;;;;928148;153;27831;-76
2022/10/11 06:23:24;;;;;;;3.83;2.13;;;11.60;99.90;;;;;;928001;152;27381;-77
2022/10/11 06:25:57;;;;;;;5.97;2.10;;;11.90;99.90;;;;;;930137;150;27384;-76
2022/10/11 06:28:24;;;;;;;6.30;2.63;;;12.20;99.90;;;;;;928698;153;27822;-77
2022/10/11 06:30:50;;;;;;;3.87;1.97;;;12.60;99.90;;;;;;930323;150;27317;-77
2022/10/11 06:33:17;;;;;;;4.70;2.10;;;13.00;99.90;;;;;;929013;152;27314;-77
2022/10/11 06:35:43;;;;;;;7.17;2.07;;;13.40;99.90;;;;;;928880;150;27370;-77
2022/10/11 06:38:10;;;;;;;6.73;2.10;;;13.80;99.90;;;;;;928271;152;27468;-77
2022/10/11 06:40:37;;;;;;;5.47;2.10;;;14.30;99.90;;;;;;927358;153;27330;-77
2022/10/11 06:43:03;;;;;;;6.80;2.20;;;14.70;99.90;;;;;;928406;153;27378;-77
2022/10/11 06:45:30;;;;;;;5.37;2.20;;;15.20;99.90;;;;;;927973;150;27377;-77
2022/10/11 06:47:56;;;;;;;4.22;1.70;;;15.60;99.70;;;;;;933208;149;27374;-78
2022/10/11 06:50:23;;;;;;;7.55;2.65;;;16.10;98.60;;;;;;934336;149;27463;-77
2022/10/11 06:52:50;;;;;;;3.77;1.62;;;16.60;97.60;;;;;;932463;149;28033;-77
2022/10/11 06:55:16;;;;;;;3.95;1.62;;;17.00;96.40;;;;;;934600;149;27271;-77
2022/10/11 06:57:43;;;;;;;3.83;1.75;;;17.50;95.80;;;;;;934086;149;27658;-77
2022/10/11 07:00:09;;;;;;;6.95;1.92;;;18.00;94.40;;;;;;932916;149;27780;-78
2022/10/11 07:02:36;;;;;;;4.20;2.05;;;18.40;92.40;;;;;;930915;149;27304;-78
2022/10/11 07:05:03;;;;;;;5.92;1.90;;;18.90;91.00;;;;;;933158;149;27378;-78
2022/10/11 07:07:29;;;;;;;6.10;2.00;;;19.20;88.40;;;;;;933722;149;27346;-77
2022/10/11 07:09:56;;;;;;;7.15;1.92;;;19.50;85.30;;;;;;933546;149;27343;-78
2022/10/11 07:12:23;;;;;;;2.70;1.62;;;19.70;82.80;;;;;;931593;149;27288;-78
2022/10/11 07:14:49;;;;;;;4.85;1.98;;;20.00;82.50;;;;;;933529;149;27335;-78
2022/10/11 07:17:16;;;;;;;5.12;2.15;;;20.20;82.10;;;;;;932409;149;27445;-78
2022/10/11 07:19:42;;;;;;;3.65;1.82;;;20.50;81.40;;;;;;931981;149;27348;-77
2022/10/11 07:22:09;;;;;;;5.05;1.80;;;20.80;80.00;;;;;;934040;149;27334;-78
2022/10/11 07:24:35;;;;;;;6.37;2.20;;;21.10;78.70;;;;;;931432;149;27412;-78
2022/10/11 07:27:02;;;;;;;4.28;1.55;;;21.40;77.60;;;;;;932453;149;27334;-78
2022/10/11 07:29:29;;;;;;;4.30;1.62;;;21.70;76.70;;;;;;932714;149;27409;-78
2022/10/11 07:31:55;;;;;;;4.33;1.45;;;21.90;76.00;;;;;;932212;149;27379;-78
2022/10/11 07:34:22;;;;;;;6.00;1.80;;;22.30;75.30;;;;;;933044;149;27354;-78
2022/10/11 07:36:48;;;;;;;3.12;1.52;;;22.60;74.60;;;;;;934456;149;27691;-78
2022/10/11 07:39:15;;;;;;;2.52;1.42;;;23.00;73.40;;;;;;932393;149;27461;-78
2022/10/11 07:41:41;;;;;;;2.15;1.50;;;23.30;72.20;;;;;;933669;149;27319;-78
2022/10/11 07:44:08;;;;;;;5.35;2.00;;;23.70;71.20;;;;;;934528;149;27408;-78
2022/10/11 07:46:35;;;;;;;4.20;1.50;;;24.00;70.20;;;;;;932333;149;27532;-78
2022/10/11 07:49:01;;;;;;;6.00;1.45;;;24.40;69.30;;;;;;920912;154;27445;-78
2022/10/11 07:51:28;;;;;;;4.75;2.22;;;24.70;67.60;;;;;;916671;154;27355;-78
2022/10/11 07:53:54;;;;;;;4.15;1.65;;;25.10;67.00;;;;;;920217;152;27319;-78
2022/10/11 07:56:21;;;;;;;8.45;1.60;;;25.40;65.50;;;;;;920817;152;27441;-78
2022/10/11 07:58:50;;;;;;;5.62;2.10;;;25.60;63.90;;;;;;931454;152;28902;-78
2022/10/11 08:01:17;;;;;;;4.90;1.80;;;25.80;63.50;;;;;;931644;152;27311;-78
2022/10/11 08:03:43;;;;;;;3.25;1.82;;;26.00;63.20;;;;;;931672;149;27879;-78
2022/10/11 08:06:10;;;;;;;5.62;2.00;;;26.20;62.80;;;;;;930741;149;27283;-78
2022/10/11 08:08:37;;;;;;;2.75;1.52;;;26.40;61.30;;;;;;916438;152;27404;-78
2022/10/11 08:11:03;;;;;;;4.03;1.60;;;26.60;61.00;;;;;;931982;152;27304;-78
2022/10/11 08:13:30;;;;;;;4.97;2.00;;;26.70;59.70;;;;;;932568;151;27271;-78
2022/10/11 08:15:56;;;;;;;3.77;1.57;;;26.70;58.50;;;;;;933162;152;27321;-78
2022/10/11 08:18:23;;;;;;;4.62;1.77;;;26.80;58.10;;;;;;932085;152;27366;-78
2022/10/11 08:20:50;;;;;;;4.42;1.65;;;26.70;58.20;;;;;;932107;151;27380;-78
2022/10/11 08:23:16;;;;;;;2.98;1.45;;;26.70;57.30;;;;;;931553;152;27664;-78
2022/10/11 08:25:43;;;;;;;2.83;1.60;;;26.60;56.60;;;;;;925412;152;27442;-78
2022/10/11 08:28:14;;;;;;;7.85;2.10;;;26.60;56.10;;;;;;930906;152;27355;-78
2022/10/11 08:30:36;;;;;;;3.42;1.42;;;26.40;54.70;;;;;;930801;152;27391;-78
2022/10/11 08:33:03;;;;;;;3.75;1.50;;;26.20;55.50;;;;;;932122;151;27437;-78
2022/10/11 08:35:29;;;;;;;1.90;1.37;;;26.10;55.80;;;;;;932209;152;27452;-78
2022/10/11 08:37:56;;;;;;;4.47;2.02;;;26.00;56.20;;;;;;931779;152;27321;-78
2022/10/11 08:40:22;;;;;;;2.58;1.57;;;25.90;56.60;;;;;;919279;151;27347;-78
2022/10/11 08:42:52;;;;;;;3.85;1.77;;;26.00;57.10;;;;;;919699;154;27366;-78
2022/10/11 08:45:19;;;;;;;4.15;1.37;;;26.10;57.40;;;;;;931722;149;27426;-78
2022/10/11 08:47:45;;;;;;;5.58;2.10;;;26.30;56.60;;;;;;926381;148;27487;-78
2022/10/11 08:50:18;;;;;;;6.00;1.98;;;26.50;57.10;;;;;;934021;148;27437;-78
2022/10/11 08:52:50;;;;;;;3.98;2.42;;;26.70;56.90;;;;;;934924;148;27438;-78
2022/10/11 08:55:23;;;;;;;5.53;1.62;;;26.90;56.60;;;;;;933446;148;27328;-78
2022/10/11 08:57:49;;;;;;;3.10;1.40;;;27.20;56.00;;;;;;933977;148;27372;-78
2022/10/11 09:00:16;;;;;;;3.12;1.32;;;27.30;55.10;;;;;;933486;148;27346;-78
2022/10/11 09:02:42;;;;;;;3.70;1.50;;;27.40;54.80;;;;;;934928;148;27419;-78
2022/10/11 09:05:12;;;;;;;1.95;1.32;;;27.40;54.40;;;;;;934974;148;27661;-78
2022/10/11 09:07:38;;;;;;;3.77;1.52;;;27.40;54.30;;;;;;939269;147;27430;-78
2022/10/11 09:10:26;;;;;;;5.17;1.70;;;27.40;53.70;;;;;;939643;147;27313;-78
2022/10/11 09:13:07;;;;;;;3.12;1.70;;;27.20;53.30;;;;;;907698;147;27343;-79
2022/10/11 09:15:36;;;;;;;4.35;2.17;;;27.10;53.30;;;;;;938738;147;27399;-78
2022/10/11 09:18:11;;;;;;;4.05;1.52;;;26.90;52.80;;;;;;937728;147;27423;-78
2022/10/11 09:20:59;;;;;;;4.65;1.35;;;26.60;52.80;;;;;;928208;150;27808;-78
2022/10/11 09:24:03;;;;;;;1.82;1.27;;;26.30;52.40;;;;;;926069;150;27464;-78
2022/10/11 09:26:54;;;;;;;3.62;1.60;;;26.10;52.40;;;;;;930898;150;27391;-79
2022/10/11 09:29:54;;;;;;;3.15;1.70;;;25.80;52.60;;;;;;914569;150;27461;-78
2022/10/11 09:32:20;;;;;;;5.70;1.70;;;25.50;52.80;;;;;;928268;150;27478;-78
2022/10/11 09:34:47;;;;;;;6.92;1.95;;;25.10;53.30;;;;;;928980;150;27286;-78
2022/10/11 09:37:34;;;;;;;4.83;1.55;;;24.80;53.30;;;;;;926211;150;27359;-78
2022/10/11 09:40:07;;;;;;;2.87;1.80;;;24.60;53.60;;;;;;928448;149;27394;-78
2022/10/11 09:42:33;;;;;;;6.12;1.47;;;24.30;53.90;;;;;;928211;150;27381;-79
2022/10/11 09:45:00;;;;;;;4.90;1.55;;;24.00;53.90;;;;;;928771;150;27383;-78
2022/10/11 09:47:26;;;;;;;4.55;1.70;;;23.70;54.00;;;;;;927081;150;27466;-77
2022/10/11 09:50:05;;;;;;;4.95;1.98;;;23.50;54.00;;;;;;919845;152;27457;-77
2022/10/11 09:52:31;;;;;;;4.95;1.47;;;23.20;54.30;;;;;;917715;152;27410;-77
2022/10/11 09:55:00;;;;;;;5.78;1.57;;;22.90;54.30;;;;;;919043;152;27485;-77
2022/10/11 09:57:27;;;;;;;2.80;1.60;;;22.70;54.50;;;;;;934766;151;27493;-78
2022/10/11 10:00:24;;;;;;;5.62;2.12;;;22.40;54.70;;;;;;936352;151;27369;-78
2022/10/11 10:02:50;;;;;;;4.60;1.57;;;22.20;55.00;;;;;;933596;151;27980;-78
2022/10/11 10:05:26;;;;;;;3.55;1.50;;;22.00;55.20;;;;;;934637;149;27374;-78
2022/10/11 10:08:10;;;;;;;6.05;1.80;;;21.80;55.30;;;;;;935913;151;27420;-78
2022/10/11 10:10:50;;;;;;;1.77;1.20;;;21.60;55.40;;;;;;935300;151;27361;-78
2022/10/11 10:13:22;;;;;;;3.80;1.80;;;21.50;55.80;;;;;;933969;151;27329;-78
2022/10/11 10:15:49;;;;;;;4.22;1.30;;;21.30;55.80;;;;;;932741;151;27405;-78
2022/10/11 10:18:27;;;;;;;3.92;1.50;;;21.20;56.00;;;;;;936664;148;27345;-78
2022/10/11 10:20:53;;;;;;;3.25;2.02;;;21.00;56.10;;;;;;932773;149;27365;-78
2022/10/11 10:23:22;;;;;;;3.70;1.62;;;20.90;56.10;;;;;;918463;154;27361;-78
2022/10/11 10:25:50;;;;;;;5.53;1.87;;;20.80;56.40;;;;;;933356;151;27377;-78
2022/10/11 10:28:16;;;;;;;4.47;1.47;;;20.60;56.60;;;;;;935470;151;27366;-78
2022/10/11 10:30:53;;;;;;;4.22;1.47;;;20.60;56.70;;;;;;933548;148;28308;-78
2022/10/11 10:33:19;;;;;;;5.30;2.00;;;20.50;56.70;;;;;;934211;151;27337;-77
2022/10/11 10:35:56;;;;;;;4.50;1.75;;;20.40;56.90;;;;;;934114;151;27466;-77
2022/10/11 10:38:36;;;;;;;2.85;1.70;;;20.30;56.90;;;;;;936090;151;27333;-77
2022/10/11 10:41:02;;;;;;;4.67;1.85;;;20.20;57.00;;;;;;934459;151;27374;-77
2022/10/11 10:43:34;;;;;;;2.95;1.65;;;20.20;57.20;;;;;;934791;151;27363;-77
2022/10/11 10:46:15;;;;;;;1.52;1.07;;;20.10;57.40;;;;;;937338;149;27413;-78
2022/10/11 10:48:56;;;;;;;1.77;1.00;;;20.00;57.50;;;;;;933841;151;27334;-78
2022/10/11 10:51:44;;;;;;;2.02;1.30;;;19.90;57.50;;;;;;935689;148;28069;-78
2022/10/11 10:54:22;;;;;;;4.33;1.50;;;19.80;57.50;;;;;;933495;148;27377;-78
2022/10/11 10:56:49;;;;;;;3.47;1.77;;;19.80;57.70;;;;;;918026;149;27350;-78
2022/10/11 10:59:53;;;;;;;3.60;1.40;;;19.70;57.60;;;;;;927099;150;27317;-78
2022/10/11 11:02:22;;;;;;;3.85;2.15;;;19.70;57.60;;;;;;927390;150;27852;-78
2022/10/11 11:05:17;;;;;;;3.02;1.85;;;19.60;57.60;;;;;;928483;150;27414;-79
2022/10/11 11:07:51;;;;;;;5.53;1.80;;;19.60;57.80;;;;;;928324;150;27347;-78
2022/10/11 11:10:29;;;;;;;4.67;1.40;;;19.50;57.80;;;;;;926409;150;27389;-78
2022/10/11 11:13:17;;;;;;;1.87;1.25;;;19.50;58.00;;;;;;928756;150;27436;-78
2022/10/11 11:16:03;;;;;;;2.87;1.30;;;19.40;58.00;;;;;;928431;150;27456;-78
2022/10/11 11:18:44;;;;;;;5.83;1.30;;;19.40;58.70;;;;;;927857;150;27475;-79
2022/10/11 11:21:16;;;;;;;3.65;1.35;;;19.40;58.30;;;;;;921976;150;27471;-78
2022/10/11 11:23:45;;;;;;;2.62;1.50;;;19.30;58.30;;;;;;928628;150;27348;-78
2022/10/11 11:26:15;;;;;;;3.50;1.47;;;19.30;58.40;;;;;;928266;150;27484;-78
2022/10/11 11:29:12;;;;;;;6.50;1.82;;;19.30;58.40;;;;;;927173;150;27291;-78
2022/10/11 11:31:47;;;;;;;3.80;1.27;;;19.30;58.40;;;;;;927814;150;27362;-78
2022/10/11 11:34:26;;;;;;;6.08;1.40;;;19.30;58.50;;;;;;926223;150;27404;-78
2022/10/11 11:36:56;;;;;;;1.87;1.10;;;19.30;58.70;;;;;;923516;150;27499;-78
2022/10/11 11:39:34;;;;;;;2.60;1.42;;;19.40;58.60;;;;;;928172;150;27494;-78
2022/10/11 11:42:04;;;;;;;2.17;1.40;;;19.40;58.50;;;;;;926923;150;27459;-78
2022/10/11 11:44:30;;;;;;;2.15;1.42;;;19.40;58.30;;;;;;929261;150;28149;-78
2022/10/11 11:47:00;;;;;;;2.55;1.17;;;19.50;58.20;;;;;;929856;150;27435;-78
2022/10/11 11:49:32;;;;;;;2.65;1.40;;;19.40;57.80;;;;;;908860;150;27403;-78
2022/10/11 11:51:59;;;;;;;2.33;1.80;;;19.40;57.60;;;;;;910153;152;27401;-79
2022/10/11 11:54:28;;;;;;;4.00;1.60;;;19.40;57.60;;;;;;935720;148;27266;-79
2022/10/11 11:56:57;;;;;;;2.72;1.35;;;19.40;57.60;;;;;;932373;148;27334;-79
2022/10/11 11:59:29;;;;;;;3.17;1.37;;;19.40;57.60;;;;;;930212;148;27362;-79
2022/10/11 12:01:59;;;;;;;2.15;1.20;;;19.40;57.60;;;;;;932523;148;27366;-79
2022/10/11 12:04:31;;;;;;;2.62;1.10;;;19.40;57.60;;;;;;934917;148;27445;-79
2022/10/11 12:06:58;;;;;;;1.92;1.15;;;19.40;57.40;;;;;;935898;148;27296;-79
2022/10/11 12:09:24;;;;;;;4.62;1.95;;;19.40;57.40;;;;;;931492;148;27503;-79
2022/10/11 12:11:57;;;;;;;3.75;1.52;;;19.30;57.50;;;;;;935166;148;27899;-79
2022/10/11 12:14:26;;;;;;;2.50;1.30;;;19.30;57.60;;;;;;934902;148;27357;-79
2022/10/11 12:17:15;;;;;;;2.30;1.05;;;19.30;57.80;;;;;;933331;148;27315;-79
2022/10/11 12:19:40;;;;;;;1.27;1.10;;;19.30;58.00;;;;;;935123;148;27429;-78
2022/10/11 12:22:25;;;;;;;2.80;1.02;;;19.30;57.70;;;;;;933569;148;27367;-78
2022/10/11 12:24:58;;;;;;;4.37;1.40;;;19.30;57.60;;;;;;935554;148;27355;-78
2022/10/11 12:27:45;;;;;;;2.87;1.55;;;19.30;57.60;;;;;;933533;148;27330;-78
2022/10/11 12:30:43;;;;;;;3.85;1.12;;;19.30;57.50;;;;;;936011;148;27398;-78
2022/10/11 12:33:25;;;;;;;2.15;1.30;;;19.20;57.40;;;;;;933160;148;27310;-78
2022/10/11 12:35:54;;;;;;;3.87;1.50;;;19.20;57.50;;;;;;932042;148;27340;-78
2022/10/11 12:38:23;;;;;;;2.72;1.17;;;19.20;57.60;;;;;;934700;148;27428;-78
2022/10/11 12:40:50;;;;;;;5.55;1.80;;;19.10;57.70;;;;;;934819;148;27370;-78
2022/10/11 12:43:25;;;;;;;2.87;1.30;;;19.10;57.70;;;;;;937653;148;28043;-78
2022/10/11 12:45:52;;;;;;;3.67;1.37;;;19.10;57.70;;;;;;936072;148;27452;-78
2022/10/11 12:48:27;;;;;;;4.03;1.07;;;19.10;57.90;;;;;;934938;148;27331;-78
2022/10/11 12:50:57;;;;;;;2.27;1.07;;;19.10;57.80;;;;;;931653;148;27421;-78
2022/10/11 12:53:44;;;;;;;1.62;1.15;;;19.10;57.90;;;;;;936155;151;27468;-78
2022/10/11 12:56:14;;;;;;;3.47;1.10;;;19.10;57.80;;;;;;935108;151;27410;-78
2022/10/11 12:58:40;;;;;;;2.05;1.17;;;19.10;57.70;;;;;;934518;151;27755;-78
2022/10/11 13:01:07;;;;;;;1.80;1.15;;;19.10;57.60;;;;;;934387;151;27332;-79